Terminal Aerodrome Forecast
Issued by NWS Tampa Bay Area, FL

Home | Current Version | Previous Version | Text Only | Print | Product List | Glossary On
Versions: 1 2 3 4 5 6 7 8 9 10 11 12 13 14 15
000
FTUS42 KTBW 182337
TAFSRQ
TAF
KSRQ 182337Z 1900/1924 22010KT P6SM FEW035 BKN250
     FM190500 15004KT P6SM BKN200
     FM191300 16008KT P6SM FEW025 BKN200
     FM191600 20012KT P6SM SCT250
     FM192200 22010KT P6SM VCSH BKN040=

USA.gov is the U.S. government's official web portal to all federal, state and local government web resources and services.